createdAt,value
2022-08-05T05:30:31.305Z,6.97
2022-08-05T07:22:18.235Z,21.35
2022-08-05T07:26:20.936Z,22.42
2022-08-05T07:30:52.734Z,24.83
2022-08-05T09:27:01.943Z,18.83
2022-08-05T09:46:29.352Z,17.95
2022-08-05T09:49:08.453Z,17.52
2022-08-05T09:51:49.550Z,17.48
2022-08-05T10:32:52.647Z,14.00
2022-08-05T10:35:06.899Z,14.32
2022-08-05T10:37:37.520Z,14.40
2022-08-05T10:40:22.387Z,15.40
2022-08-05T10:42:59.947Z,14.73
2022-08-05T10:45:40.418Z,15.65
2022-08-05T10:48:39.541Z,15.90
2022-08-05T10:51:28.860Z,15.23
2022-08-05T10:54:05.907Z,14.73
2022-08-05T10:56:52.935Z,13.60
2022-08-05T11:00:02.260Z,14.30
2022-08-05T11:02:37.446Z,12.88
2022-08-05T11:05:08.004Z,13.45
2022-08-05T11:08:02.593Z,12.60
2022-08-05T11:10:37.697Z,13.77
2022-08-05T11:13:57.634Z,10.82
2022-08-05T11:16:47.517Z,9.75
2022-08-05T11:20:10.665Z,9.38
2022-08-05T11:22:43.981Z,8.52
2022-08-05T11:26:04.556Z,7.40
2022-08-05T11:28:44.276Z,6.50
2022-08-05T11:31:54.468Z,6.80
2022-08-05T11:34:37.194Z,5.88
2022-08-05T11:37:06.201Z,5.60
2022-08-05T11:40:00.305Z,4.43
2022-08-05T11:42:38.116Z,4.63
2022-08-05T11:45:14.498Z,2.53
2022-08-05T11:47:55.130Z,2.17
2022-08-05T11:50:23.643Z,2.10
2022-08-05T11:52:57.554Z,1.70
2022-08-05T11:55:31.570Z,1.40
2022-08-05T11:58:09.878Z,1.65
2022-08-05T12:00:44.098Z,1.65
2022-08-05T12:03:28.764Z,1.63
2022-08-05T12:06:05.782Z,1.70
2022-08-05T12:08:49.705Z,1.85
2022-08-05T12:11:21.898Z,2.20
2022-08-05T12:13:58.708Z,1.63
2022-08-05T12:16:38.208Z,1.88
2022-08-05T12:19:08.220Z,1.90
2022-08-05T12:21:42.696Z,1.58
2022-08-05T12:24:13.872Z,1.60
2022-08-05T12:26:48.383Z,1.88
2022-08-05T12:29:22.883Z,1.92
2022-08-05T12:31:53.668Z,1.60
2022-08-05T12:34:24.072Z,1.52
2022-08-05T12:36:54.288Z,1.83
2022-08-05T12:39:27.931Z,1.60
2022-08-05T12:42:04.488Z,1.98
2022-08-05T12:44:36.877Z,1.48
2022-08-05T12:47:12.439Z,2.10
2022-08-05T12:50:03.420Z,1.90
2022-08-05T12:52:38.673Z,1.80
2022-08-05T12:55:23.836Z,2.00
2022-08-05T12:58:38.364Z,1.60
2022-08-05T13:02:01.517Z,1.95
2022-08-05T13:03:41.460Z,2.08
2022-08-05T13:06:16.077Z,1.50
2022-08-05T13:08:50.675Z,1.77
2022-08-05T13:11:25.409Z,1.73
2022-08-05T13:14:20.209Z,1.95
2022-08-05T13:16:56.578Z,1.77
2022-08-05T13:19:26.361Z,1.92
2022-08-05T13:21:56.680Z,1.70
2022-08-05T13:24:36.543Z,1.90
2022-08-05T13:27:16.924Z,1.92
2022-08-05T13:29:59.404Z,1.70
2022-08-05T13:32:42.179Z,1.42
2022-08-05T13:35:15.330Z,1.60
2022-08-05T13:37:55.736Z,1.52
2022-08-05T13:40:47.931Z,1.73
2022-08-05T13:43:12.221Z,1.80
2022-08-05T13:45:43.320Z,1.67
2022-08-05T13:48:58.261Z,1.98
2022-08-05T13:51:06.693Z,1.90
2022-08-05T13:53:35.095Z,1.52
2022-08-05T13:56:18.442Z,1.40
2022-08-05T13:58:52.973Z,1.83
2022-08-05T14:01:27.404Z,1.85
2022-08-05T14:04:28.093Z,1.42
2022-08-05T14:06:58.826Z,1.90
2022-08-05T14:09:46.378Z,1.58
2022-08-05T14:12:18.339Z,1.70
2022-08-05T14:15:00.818Z,1.80
2022-08-05T14:17:35.698Z,1.77
2022-08-05T14:20:07.650Z,1.65
2022-08-05T14:22:36.300Z,1.70
2022-08-05T14:25:06.434Z,1.85
2022-08-05T14:27:50.882Z,2.00
2022-08-05T14:30:20.851Z,2.08
2022-08-05T14:32:51.297Z,1.38
2022-08-05T14:35:20.628Z,2.08
2022-08-05T14:37:55.004Z,1.75
2022-08-05T14:40:24.396Z,2.17
2022-08-05T14:42:52.627Z,2.22
2022-08-05T14:45:20.527Z,2.05
2022-08-05T14:48:03.748Z,2.10
2022-08-05T14:50:38.905Z,1.90
2022-08-05T14:53:08.678Z,1.95
2022-08-05T14:55:39.459Z,1.95
2022-08-05T14:58:10.819Z,2.10
2022-08-05T15:00:39.435Z,2.25
2022-08-05T15:03:33.989Z,2.30
2022-08-05T15:06:15.501Z,2.72
2022-08-05T15:09:01.123Z,2.30
2022-08-05T15:11:51.712Z,2.30
2022-08-05T15:14:35.794Z,4.07
2022-08-05T15:17:44.553Z,1.90
2022-08-05T15:19:58.101Z,2.20
2022-08-05T15:22:27.257Z,2.38
2022-08-05T15:24:56.157Z,2.10
2022-08-05T15:27:25.399Z,1.85
2022-08-05T15:29:54.341Z,2.00
2022-08-05T15:32:28.639Z,2.13
2022-08-05T15:34:58.692Z,2.42
2022-08-05T15:38:34.306Z,2.20
2022-08-05T15:40:58.221Z,2.20
2022-08-05T15:43:12.676Z,2.05
2022-08-05T15:45:47.949Z,2.33
2022-08-05T15:48:29.512Z,1.85
2022-08-05T15:51:03.285Z,1.60
2022-08-05T15:53:38.078Z,1.90
2022-08-05T15:56:18.239Z,2.00
2022-08-05T15:58:47.249Z,1.95
2022-08-05T16:01:16.463Z,1.85
2022-08-05T16:03:48.133Z,1.80
2022-08-05T16:06:20.345Z,1.77
2022-08-05T16:08:51.234Z,2.00
2022-08-05T16:11:40.150Z,2.28
2022-08-05T16:14:09.552Z,2.00
2022-08-05T16:16:37.564Z,1.90
2022-08-05T16:19:06.461Z,1.85
2022-08-05T16:22:00.359Z,2.10
2022-08-05T16:24:39.998Z,1.92
2022-08-05T16:27:10.148Z,2.03
2022-08-05T16:29:47.480Z,1.70
2022-08-05T16:32:28.522Z,1.90
2022-08-05T16:34:58.857Z,1.73
2022-08-05T16:38:15.889Z,1.95
2022-08-05T16:40:26.492Z,2.22
2022-08-05T16:42:57.399Z,2.00
2022-08-05T16:46:03.907Z,2.10
2022-08-05T16:48:25.606Z,2.28
2022-08-05T16:51:00.695Z,2.05
2022-08-05T16:53:32.086Z,2.10
2022-08-05T16:56:00.712Z,2.00
2022-08-05T16:58:29.707Z,2.30
2022-08-05T17:00:58.121Z,2.25
2022-08-05T17:03:27.365Z,1.95
2022-08-05T17:05:59.585Z,2.17
2022-08-05T17:08:36.408Z,1.75
2022-08-05T17:11:17.368Z,1.98
2022-08-05T17:13:45.505Z,2.50
2022-08-05T17:16:29.855Z,1.92
2022-08-05T17:19:01.126Z,1.80
2022-08-05T17:21:35.522Z,2.00
2022-08-05T17:24:30.262Z,2.00
2022-08-05T17:26:56.637Z,1.60
2022-08-05T17:29:33.339Z,2.25
2022-08-05T17:32:02.072Z,1.73
2022-08-05T17:34:32.245Z,2.28
2022-08-05T17:37:04.589Z,1.80
2022-08-05T17:39:46.158Z,1.65
2022-08-05T17:42:22.872Z,1.92
2022-08-05T17:44:53.599Z,2.42
2022-08-05T17:47:22.916Z,1.92
2022-08-05T17:50:04.168Z,1.67
2022-08-05T17:52:53.266Z,2.00
2022-08-05T17:55:27.416Z,2.40
2022-08-05T17:58:04.980Z,1.85
2022-08-05T18:00:35.445Z,1.58
2022-08-05T18:03:03.403Z,2.00
2022-08-05T18:05:36.118Z,1.77
2022-08-05T18:08:04.471Z,1.92
2022-08-05T18:10:33.853Z,3.60
2022-08-05T18:13:07.652Z,2.63
2022-08-05T18:15:41.009Z,1.85
2022-08-05T18:18:11.347Z,1.60
2022-08-05T18:20:39.488Z,1.25
2022-08-05T18:23:12.059Z,1.40
2022-08-05T18:25:45.492Z,1.02
2022-08-05T18:28:16.391Z,1.52
2022-08-05T18:30:45.585Z,1.35
2022-08-05T18:33:22.984Z,1.15
2022-08-05T18:36:01.007Z,1.80
2022-08-05T18:38:35.808Z,1.42
2022-08-05T18:41:55.810Z,1.17
2022-08-05T18:43:55.114Z,1.00
2022-08-05T18:46:26.203Z,1.50
2022-08-05T18:48:56.928Z,11.32
2022-08-05T18:52:06.505Z,4.88
2022-08-05T18:54:31.895Z,2.30
2022-08-05T18:57:01.564Z,2.10
2022-08-05T18:59:43.751Z,2.65
2022-08-05T19:02:28.323Z,1.90
2022-08-05T19:05:02.313Z,1.20
2022-08-05T19:07:47.654Z,0.95
2022-08-05T19:10:15.961Z,1.08
2022-08-05T19:12:46.463Z,0.82
2022-08-05T19:15:56.825Z,1.08
2022-08-05T19:18:09.219Z,0.98
2022-08-05T19:20:41.419Z,1.27
2022-08-05T19:23:22.665Z,1.08
2022-08-05T19:26:02.193Z,1.08
2022-08-05T19:28:32.887Z,0.90
2022-08-05T19:31:04.882Z,1.40
2022-08-05T19:33:36.771Z,1.08
2022-08-05T19:36:06.402Z,1.15
2022-08-05T19:38:35.647Z,1.30
2022-08-05T19:41:07.421Z,0.90
2022-08-05T19:44:05.805Z,1.17
2022-08-05T19:46:30.376Z,1.15
2022-08-05T19:49:01.256Z,0.93
2022-08-05T19:52:04.362Z,1.25
2022-08-05T19:54:27.012Z,1.20
2022-08-05T19:56:58.772Z,1.17
2022-08-05T20:00:00.547Z,1.10
2022-08-05T20:02:17.623Z,1.55
2022-08-05T20:04:46.246Z,1.10
2022-08-05T20:07:16.320Z,1.30
2022-08-05T20:10:13.526Z,1.30
2022-08-05T20:12:46.068Z,1.10
2022-08-05T20:15:48.302Z,0.80
2022-08-05T20:18:10.634Z,1.02
2022-08-05T20:20:56.818Z,1.08
2022-08-05T20:23:40.342Z,1.00
2022-08-05T20:26:15.867Z,0.98
2022-08-05T20:28:47.895Z,1.10
2022-08-05T20:31:17.669Z,1.60
2022-08-05T20:33:50.146Z,1.10
2022-08-05T20:36:18.253Z,1.10
2022-08-05T20:38:54.598Z,1.00
2022-08-05T20:41:43.307Z,1.25
2022-08-05T20:44:19.418Z,1.08
2022-08-05T20:47:01.331Z,1.08
2022-08-05T20:49:29.256Z,1.15
2022-08-05T20:51:58.142Z,1.30
2022-08-05T20:54:43.066Z,1.40
2022-08-05T20:57:25.063Z,1.27
2022-08-05T21:00:19.936Z,0.98
2022-08-05T21:02:59.984Z,1.40
2022-08-05T21:05:47.727Z,1.10
2022-08-05T21:08:17.638Z,0.95
2022-08-05T21:10:49.012Z,1.00
2022-08-05T21:13:25.911Z,1.27
2022-08-05T21:16:05.568Z,1.45
2022-08-05T21:18:34.871Z,1.40
2022-08-05T21:21:03.738Z,1.13
2022-08-05T21:23:36.991Z,1.35
2022-08-05T21:26:12.271Z,1.25
2022-08-05T21:28:40.506Z,1.00
2022-08-05T21:31:15.851Z,1.27
2022-08-05T21:33:47.859Z,1.20
2022-08-05T21:36:27.676Z,1.30
2022-08-05T21:38:58.541Z,1.40
2022-08-05T21:41:33.086Z,1.45
2022-08-05T21:44:04.311Z,1.40
2022-08-05T21:46:34.352Z,1.13
2022-08-05T21:49:07.549Z,1.30
2022-08-05T21:52:22.856Z,1.40
2022-08-05T21:54:30.826Z,1.23
2022-08-05T21:57:29.782Z,1.10
2022-08-05T22:00:03.922Z,1.13
2022-08-05T22:02:41.721Z,1.13
2022-08-05T22:05:12.805Z,1.27
2022-08-05T22:07:58.923Z,1.40
2022-08-05T22:10:27.928Z,1.48
2022-08-05T22:12:57.372Z,1.20
2022-08-05T22:16:00.750Z,1.20
2022-08-05T22:18:14.930Z,1.40
2022-08-05T22:20:44.342Z,1.48
2022-08-05T22:24:01.006Z,1.35
2022-08-05T22:26:41.997Z,1.23
2022-08-05T22:29:18.700Z,1.40
2022-08-05T22:31:46.899Z,1.45
2022-08-05T22:34:28.337Z,1.35
2022-08-05T22:36:58.240Z,1.50
2022-08-05T22:39:33.081Z,1.30
2022-08-05T22:42:10.353Z,1.40
2022-08-05T22:44:47.070Z,1.38
2022-08-05T22:47:28.664Z,1.52
2022-08-05T22:50:21.750Z,1.50
2022-08-05T22:52:49.472Z,1.13
2022-08-05T22:55:19.210Z,1.08
2022-08-05T22:57:48.912Z,1.58
2022-08-05T23:00:20.978Z,1.10
2022-08-05T23:02:49.461Z,1.58
2022-08-05T23:05:18.282Z,1.50
2022-08-05T23:07:49.505Z,1.35
2022-08-05T23:10:23.549Z,1.25
2022-08-05T23:12:54.538Z,1.48
2022-08-05T23:15:29.070Z,1.40
2022-08-05T23:18:01.233Z,1.13
2022-08-05T23:20:31.323Z,1.35
2022-08-05T23:23:00.356Z,1.50
2022-08-05T23:25:53.627Z,1.52
2022-08-05T23:28:20.626Z,1.35
2022-08-05T23:30:53.220Z,1.10
2022-08-05T23:33:26.276Z,1.23
2022-08-05T23:36:10.595Z,1.50
2022-08-05T23:38:38.509Z,1.38
2022-08-05T23:41:07.676Z,1.10
2022-08-05T23:44:04.754Z,1.48
2022-08-05T23:46:24.502Z,1.60
2022-08-05T23:49:01.143Z,1.60
2022-08-05T23:51:48.403Z,1.55
2022-08-05T23:54:25.716Z,1.90
2022-08-05T23:56:58.279Z,1.88
2022-08-05T23:59:37.701Z,1.65
